Time;durP1;ratioP1;P1;durP2;ratioP2;P2;SDS_P1;SDS_P2;PMS_P1;PMS_P2;Temp;Humidity;BMP_temperature;BMP_pressure;BME280_temperature;BME280_humidity;BME280_pressure;Samples;Min_cycle;Max_cycle;Signal;HPM_P1;HPM_P2
2024/04/18 00:00:04;;;;;;;14.60;6.30;;;;;;;;;;5242204;27;20021;-74
2024/04/18 00:02:32;;;;;;;22.40;11.13;;;;;;;;;;5264453;27;20046;-75
2024/04/18 00:04:58;;;;;;;11.07;5.77;;;;;;;;;;5287696;27;20014;-75
2024/04/18 00:07:23;;;;;;;10.77;6.37;;;;;;;;;;5242905;27;20362;-75
2024/04/18 00:09:49;;;;;;;10.10;5.93;;;;;;;;;;5242396;27;20018;-73
2024/04/18 00:12:14;;;;;;;12.33;5.97;;;;;;;;;;5242479;27;20002;-74
2024/04/18 00:14:40;;;;;;;11.47;5.97;;;;;;;;;;5241702;27;20049;-75
2024/04/18 00:17:05;;;;;;;10.00;6.33;;;;;;;;;;5241947;27;20002;-75
2024/04/18 00:19:31;;;;;;;11.80;5.73;;;;;;;;;;5242181;27;20057;-75
2024/04/18 00:21:57;;;;;;;13.63;6.63;;;;;;;;;;5271651;27;20483;-75
2024/04/18 00:24:23;;;;;;;10.83;6.47;;;;;;;;;;5241918;27;20429;-75
2024/04/18 00:26:48;;;;;;;12.67;6.27;;;;;;;;;;5241906;27;20003;-74
2024/04/18 00:29:14;;;;;;;11.77;6.27;;;;;;;;;;5271975;27;19998;-75
2024/04/18 00:31:40;;;;;;;10.37;6.37;;;;;;;;;;5242720;27;20466;-74
2024/04/18 00:34:05;;;;;;;12.43;6.53;;;;;;;;;;5271898;27;20406;-74
2024/04/18 00:36:31;;;;;;;12.50;6.30;;;;;;;;;;5242292;27;20482;-75
2024/04/18 00:38:56;;;;;;;10.10;5.90;;;;;;;;;;5241427;27;20017;-76
2024/04/18 00:41:22;;;;;;;10.57;6.73;;;;;;;;;;5271969;27;20002;-74
2024/04/18 00:43:48;;;;;;;10.97;6.67;;;;;;;;;;5241734;27;20002;-76
2024/04/18 00:46:14;;;;;;;9.50;6.07;;;;;;;;;;5241546;27;20014;-74
2024/04/18 00:48:39;;;;;;;9.23;6.43;;;;;;;;;;5240946;27;20007;-73
2024/04/18 00:51:05;;;;;;;11.47;5.77;;;;;;;;;;5264982;27;20002;-75
2024/04/18 00:53:31;;;;;;;13.17;6.63;;;;;;;;;;5270511;27;20482;-74
2024/04/18 00:55:57;;;;;;;11.80;5.97;;;;;;;;;;5270686;27;20017;-75
2024/04/18 00:58:25;;;;;;;10.87;6.47;;;;;;;;;;5242516;27;20517;-72
2024/04/18 01:00:52;;;;;;;8.43;5.60;;;;;;;;;;5271817;27;20465;-74
2024/04/18 01:03:18;;;;;;;11.43;5.90;;;;;;;;;;5270175;27;20010;-72
2024/04/18 01:05:44;;;;;;;13.63;6.33;;;;;;;;;;5271469;27;20013;-72
2024/04/18 01:08:10;;;;;;;12.33;6.50;;;;;;;;;;5269707;27;20030;-74
2024/04/18 01:10:35;;;;;;;11.60;5.77;;;;;;;;;;5269310;27;20021;-74
2024/04/18 01:13:01;;;;;;;12.70;6.73;;;;;;;;;;5271147;27;20741;-73
2024/04/18 01:15:27;;;;;;;11.37;6.57;;;;;;;;;;5269236;27;20013;-74
2024/04/18 01:17:53;;;;;;;13.13;6.53;;;;;;;;;;5271027;27;20078;-73
2024/04/18 01:20:21;;;;;;;10.33;6.00;;;;;;;;;;5269544;27;20118;-72
2024/04/18 01:22:47;;;;;;;14.53;7.23;;;;;;;;;;5208032;27;20530;-73
2024/04/18 01:25:13;;;;;;;9.50;5.93;;;;;;;;;;5221750;27;20017;-74
2024/04/18 01:27:38;;;;;;;9.97;5.77;;;;;;;;;;5270694;27;20010;-73
2024/04/18 01:30:04;;;;;;;9.33;6.23;;;;;;;;;;5246923;27;20013;-75
2024/04/18 01:32:34;;;;;;;9.33;5.93;;;;;;;;;;5269510;27;20021;-74
2024/04/18 01:35:00;;;;;;;10.73;5.83;;;;;;;;;;5268571;27;20088;-72
2024/04/18 01:37:26;;;;;;;7.43;5.93;;;;;;;;;;5241222;27;20463;-73
2024/04/18 01:39:51;;;;;;;10.57;6.30;;;;;;;;;;5268391;27;20641;-73
2024/04/18 01:42:17;;;;;;;10.70;6.20;;;;;;;;;;5270832;27;20054;-74
2024/04/18 01:44:44;;;;;;;11.80;6.30;;;;;;;;;;5268988;27;20432;-71
2024/04/18 01:47:10;;;;;;;14.17;6.17;;;;;;;;;;5269140;27;20081;-75
2024/04/18 01:49:36;;;;;;;12.93;6.10;;;;;;;;;;5268901;27;20042;-74
2024/04/18 01:52:01;;;;;;;9.60;5.87;;;;;;;;;;5268323;27;20011;-73
2024/04/18 01:54:27;;;;;;;11.17;6.57;;;;;;;;;;5269075;27;20003;-74
2024/04/18 01:56:53;;;;;;;9.70;6.10;;;;;;;;;;5268531;27;20002;-74
2024/04/18 01:59:18;;;;;;;12.87;6.50;;;;;;;;;;5271161;27;20002;-73
2024/04/18 02:01:44;;;;;;;10.67;6.07;;;;;;;;;;5244492;27;20009;-73
2024/04/18 02:04:10;;;;;;;11.27;6.43;;;;;;;;;;5272852;27;20009;-73
2024/04/18 02:06:35;;;;;;;10.07;6.63;;;;;;;;;;5273339;27;20054;-74
2024/04/18 02:09:01;;;;;;;14.37;6.00;;;;;;;;;;5271316;27;20021;-73
2024/04/18 02:11:26;;;;;;;9.80;6.50;;;;;;;;;;5271240;27;20134;-75
2024/04/18 02:13:52;;;;;;;11.67;6.77;;;;;;;;;;5271764;27;20002;-72
2024/04/18 02:16:17;;;;;;;10.33;6.10;;;;;;;;;;5274141;27;20017;-73
2024/04/18 02:18:43;;;;;;;16.03;6.70;;;;;;;;;;5271713;27;20026;-73
2024/04/18 02:21:08;;;;;;;9.10;5.70;;;;;;;;;;5265898;27;20406;-73
2024/04/18 02:23:34;;;;;;;13.00;6.50;;;;;;;;;;5243859;27;20002;-73
2024/04/18 02:26:00;;;;;;;12.43;6.30;;;;;;;;;;5243723;27;20002;-73
2024/04/18 02:28:25;;;;;;;10.93;6.10;;;;;;;;;;5243894;27;20006;-75
2024/04/18 02:30:51;;;;;;;10.57;6.60;;;;;;;;;;5243129;27;20018;-74
2024/04/18 02:33:17;;;;;;;9.13;5.30;;;;;;;;;;5243327;27;20011;-74
2024/04/18 02:35:42;;;;;;;10.77;5.83;;;;;;;;;;5251937;27;20006;-72
2024/04/18 02:38:08;;;;;;;11.70;6.23;;;;;;;;;;5271080;27;20020;-74
2024/04/18 02:40:33;;;;;;;8.83;5.87;;;;;;;;;;5271308;27;20014;-74
2024/04/18 02:42:59;;;;;;;11.47;6.43;;;;;;;;;;5271416;27;20022;-75
2024/04/18 02:45:25;;;;;;;9.93;5.80;;;;;;;;;;5273749;27;20439;-73
2024/04/18 02:47:50;;;;;;;14.27;6.90;;;;;;;;;;5271775;27;20362;-74
2024/04/18 02:50:16;;;;;;;9.00;6.10;;;;;;;;;;5271169;27;20006;-73
2024/04/18 02:52:42;;;;;;;13.63;6.83;;;;;;;;;;5271791;27;20021;-73
2024/04/18 02:55:08;;;;;;;8.40;5.50;;;;;;;;;;5271225;27;20021;-74
2024/04/18 02:57:33;;;;;;;12.83;6.63;;;;;;;;;;5273391;27;20007;-73
2024/04/18 02:59:59;;;;;;;10.50;6.67;;;;;;;;;;5271148;27;20006;-73
2024/04/18 03:02:25;;;;;;;12.53;6.40;;;;;;;;;;5271591;27;20021;-73
2024/04/18 03:04:52;;;;;;;10.17;6.40;;;;;;;;;;5259716;27;20018;-73
2024/04/18 03:07:20;;;;;;;12.37;6.60;;;;;;;;;;5273107;27;20465;-72
2024/04/18 03:09:46;;;;;;;11.40;6.47;;;;;;;;;;5243152;27;20013;-75
2024/04/18 03:12:11;;;;;;;11.70;5.67;;;;;;;;;;5214592;27;20002;-75
2024/04/18 03:14:37;;;;;;;11.47;6.60;;;;;;;;;;5243158;27;20002;-73
2024/04/18 03:17:02;;;;;;;12.13;6.80;;;;;;;;;;5272411;27;20114;-73
2024/04/18 03:19:28;;;;;;;11.57;6.70;;;;;;;;;;5272869;27;20462;-74
2024/04/18 03:21:55;;;;;;;13.60;6.20;;;;;;;;;;5242788;27;20006;-72
2024/04/18 03:24:22;;;;;;;9.27;5.50;;;;;;;;;;5243331;27;20013;-74
2024/04/18 03:26:51;;;;;;;17.20;7.00;;;;;;;;;;5271853;27;20088;-73
2024/04/18 03:29:16;;;;;;;11.77;5.90;;;;;;;;;;5270603;27;20006;-73
2024/04/18 03:31:45;;;;;;;17.37;6.50;;;;;;;;;;5270128;27;20077;-74
2024/04/18 03:34:11;;;;;;;12.70;6.73;;;;;;;;;;5243479;27;20012;-74
2024/04/18 03:36:52;;;;;;;10.57;6.63;;;;;;;;;;5263232;27;20006;-73
2024/04/18 03:39:20;;;;;;;12.33;6.77;;;;;;;;;;5243060;27;20021;-72
2024/04/18 03:41:46;;;;;;;9.57;5.97;;;;;;;;;;5259155;27;20018;-72
2024/04/18 03:44:12;;;;;;;11.93;6.53;;;;;;;;;;5271140;27;20398;-73
2024/04/18 03:46:38;;;;;;;10.87;6.90;;;;;;;;;;5271046;27;20002;-75
2024/04/18 03:49:04;;;;;;;14.07;6.47;;;;;;;;;;5270683;27;20061;-72
2024/04/18 03:51:31;;;;;;;14.27;6.43;;;;;;;;;;5241706;27;20014;-72
2024/04/18 03:53:57;;;;;;;14.00;6.43;;;;;;;;;;5272430;27;20021;-74
2024/04/18 03:56:22;;;;;;;11.43;6.33;;;;;;;;;;5270005;27;20002;-73
2024/04/18 03:58:49;;;;;;;12.60;6.30;;;;;;;;;;5271401;27;20018;-73
2024/04/18 04:01:15;;;;;;;7.73;5.60;;;;;;;;;;5269528;27;20013;-74
2024/04/18 04:03:40;;;;;;;9.90;5.40;;;;;;;;;;5270314;27;20014;-74
2024/04/18 04:06:06;;;;;;;11.33;5.90;;;;;;;;;;5269721;27;20033;-73
2024/04/18 04:08:31;;;;;;;9.33;5.73;;;;;;;;;;5265452;27;20002;-74
2024/04/18 04:10:57;;;;;;;12.57;6.37;;;;;;;;;;5271805;27;20002;-73
2024/04/18 04:13:22;;;;;;;10.57;5.80;;;;;;;;;;5270639;27;20073;-73
2024/04/18 04:15:49;;;;;;;10.03;5.70;;;;;;;;;;5270133;27;20002;-75
2024/04/18 04:18:15;;;;;;;14.10;5.90;;;;;;;;;;5270756;27;20311;-74
2024/04/18 04:20:42;;;;;;;7.00;5.20;;;;;;;;;;5270643;27;20092;-74
2024/04/18 04:23:07;;;;;;;11.30;6.13;;;;;;;;;;5242498;27;20417;-71
2024/04/18 04:25:33;;;;;;;9.93;6.30;;;;;;;;;;5270368;27;20345;-74
2024/04/18 04:27:58;;;;;;;15.87;6.93;;;;;;;;;;5242207;27;20533;-73
2024/04/18 04:30:24;;;;;;;10.73;6.47;;;;;;;;;;5242526;27;20587;-74
2024/04/18 04:32:50;;;;;;;9.93;6.27;;;;;;;;;;5271541;27;20451;-74
2024/04/18 04:35:15;;;;;;;8.20;5.27;;;;;;;;;;5272408;27;20447;-73
2024/04/18 04:37:41;;;;;;;12.07;6.43;;;;;;;;;;5242710;27;20022;-73
2024/04/18 04:40:07;;;;;;;14.00;5.97;;;;;;;;;;5242251;27;20002;-74
2024/04/18 04:42:33;;;;;;;9.27;6.00;;;;;;;;;;5266024;27;20025;-74
2024/04/18 04:44:59;;;;;;;11.23;5.63;;;;;;;;;;5271443;27;19999;-73
2024/04/18 04:47:24;;;;;;;10.87;5.97;;;;;;;;;;5261809;27;20647;-73
2024/04/18 04:49:50;;;;;;;15.07;6.07;;;;;;;;;;5271433;27;19999;-73
2024/04/18 04:52:16;;;;;;;13.43;6.00;;;;;;;;;;5252047;27;20541;-74
2024/04/18 04:54:42;;;;;;;48.33;10.40;;;;;;;;;;5272026;27;20010;-74
2024/04/18 04:57:08;;;;;;;19.83;8.00;;;;;;;;;;5228983;27;20002;-74
2024/04/18 04:59:36;;;;;;;9.00;5.53;;;;;;;;;;5270022;27;19998;-74
2024/04/18 05:02:01;;;;;;;12.50;6.17;;;;;;;;;;5269403;27;20076;-76
2024/04/18 05:04:27;;;;;;;14.57;6.67;;;;;;;;;;5270052;27;20006;-73
2024/04/18 05:06:52;;;;;;;13.53;6.97;;;;;;;;;;5268888;27;19998;-73
2024/04/18 05:09:20;;;;;;;13.13;6.53;;;;;;;;;;5270034;27;20364;-74
2024/04/18 05:11:46;;;;;;;15.37;6.47;;;;;;;;;;5268507;27;20002;-73
2024/04/18 05:14:12;;;;;;;12.50;6.17;;;;;;;;;;5244200;27;19998;-74
2024/04/18 05:16:38;;;;;;;9.70;6.20;;;;;;;;;;5247713;27;20005;-74
2024/04/18 05:19:04;;;;;;;15.50;6.77;;;;;;;;;;5269144;27;20121;-74
2024/04/18 05:21:29;;;;;;;11.63;6.20;;;;;;;;;;5258582;27;20004;-74
2024/04/18 05:23:55;;;;;;;18.27;6.80;;;;;;;;;;5241579;27;20299;-75
2024/04/18 05:26:20;;;;;;;9.60;6.23;;;;;;;;;;5241322;27;20016;-74
2024/04/18 05:31:30;;;;;;;10.60;5.67;;;;;;;;;;5271320;27;20041;-77
2024/04/18 05:33:55;;;;;;;11.30;6.03;;;;;;;;;;5251351;27;20006;-75
2024/04/18 05:36:21;;;;;;;11.50;6.57;;;;;;;;;;5271162;27;20003;-76
2024/04/18 05:38:47;;;;;;;10.77;6.53;;;;;;;;;;5244707;27;20002;-76
2024/04/18 05:41:14;;;;;;;9.70;5.43;;;;;;;;;;5245845;27;20006;-76
2024/04/18 05:43:39;;;;;;;9.90;5.93;;;;;;;;;;5273800;27;20020;-76
2024/04/18 05:46:05;;;;;;;11.10;5.80;;;;;;;;;;5212527;27;20007;-75
2024/04/18 05:48:30;;;;;;;12.20;5.83;;;;;;;;;;5277009;27;20004;-77
2024/04/18 05:50:56;;;;;;;11.33;5.53;;;;;;;;;;5279095;27;20012;-76
2024/04/18 05:53:23;;;;;;;13.03;7.03;;;;;;;;;;5282004;27;20007;-76
2024/04/18 05:55:50;;;;;;;9.67;5.67;;;;;;;;;;5218282;27;19998;-74
2024/04/18 05:58:20;;;;;;;11.47;6.93;;;;;;;;;;5244568;27;20434;-77
2024/04/18 06:00:46;;;;;;;15.13;7.57;;;;;;;;;;5279487;27;20042;-76
2024/04/18 06:03:12;;;;;;;15.73;7.27;;;;;;;;;;5253138;27;20077;-73
2024/04/18 06:05:39;;;;;;;15.50;7.50;;;;;;;;;;5280028;27;20027;-77
2024/04/18 06:08:06;;;;;;;15.83;6.23;;;;;;;;;;5270074;27;20018;-76
2024/04/18 06:10:37;;;;;;;12.57;6.13;;;;;;;;;;5277551;27;20474;-73
2024/04/18 06:13:03;;;;;;;10.30;6.68;;;;;;;;;;5267141;27;20501;-76
2024/04/18 06:15:28;;;;;;;11.00;5.93;;;;;;;;;;5250401;27;20006;-76
2024/04/18 06:17:54;;;;;;;15.03;5.80;;;;;;;;;;5242999;27;20002;-75
2024/04/18 06:20:21;;;;;;;24.80;15.43;;;;;;;;;;5249549;27;20002;-76
2024/04/18 06:22:48;;;;;;;30.30;7.47;;;;;;;;;;5261979;27;20572;-75
2024/04/18 06:25:16;;;;;;;10.32;6.18;;;;;;;;;;5272392;27;20055;-74
2024/04/18 06:27:43;;;;;;;12.93;6.50;;;;;;;;;;5251420;27;20070;-74
2024/04/18 06:30:09;;;;;;;21.58;10.55;;;;;;;;;;5301827;27;20022;-74
2024/04/18 06:32:36;;;;;;;15.65;6.82;;;;;;;;;;5242753;27;20009;-76
2024/04/18 06:35:01;;;;;;;15.27;6.65;;;;;;;;;;5250739;27;20457;-75
2024/04/18 06:37:27;;;;;;;15.57;6.97;;;;;;;;;;5267531;27;20007;-74
2024/04/18 06:39:54;;;;;;;30.63;8.80;;;;;;;;;;5216064;27;20050;-75
2024/04/18 06:42:20;;;;;;;13.77;7.20;;;;;;;;;;5273195;27;20466;-75
2024/04/18 06:44:46;;;;;;;13.70;7.00;;;;;;;;;;5271332;27;20010;-74
2024/04/18 06:47:11;;;;;;;14.60;7.53;;;;;;;;;;5247787;27;20038;-76
2024/04/18 06:49:38;;;;;;;13.67;7.03;;;;;;;;;;5269230;27;20080;-75
2024/04/18 06:52:04;;;;;;;20.27;7.30;;;;;;;;;;5272969;27;19999;-75
2024/04/18 06:54:31;;;;;;;26.53;7.37;;;;;;;;;;5263573;27;20024;-75
2024/04/18 06:56:57;;;;;;;10.83;6.67;;;;;;;;;;5244706;27;20002;-73
2024/04/18 06:59:22;;;;;;;16.58;7.43;;;;;;;;;;5270569;27;20005;-72
2024/04/18 07:01:48;;;;;;;22.67;9.93;;;;;;;;;;5271898;27;20049;-76
2024/04/18 07:04:14;;;;;;;13.43;7.70;;;;;;;;;;5232931;27;20430;-75
2024/04/18 07:06:39;;;;;;;12.90;6.83;;;;;;;;;;5240684;27;19998;-77
2024/04/18 07:09:05;;;;;;;18.43;8.50;;;;;;;;;;5278899;27;20010;-73
2024/04/18 07:11:31;;;;;;;12.90;8.03;;;;;;;;;;5271620;27;20466;-77
2024/04/18 07:13:56;;;;;;;17.33;7.87;;;;;;;;;;5263691;27;20021;-75
2024/04/18 07:16:22;;;;;;;10.90;6.90;;;;;;;;;;5219264;27;20007;-73
2024/04/18 07:18:49;;;;;;;13.03;6.80;;;;;;;;;;5278622;27;19998;-76
2024/04/18 07:21:15;;;;;;;11.70;6.97;;;;;;;;;;5240931;27;20037;-77
2024/04/18 07:23:41;;;;;;;16.60;7.83;;;;;;;;;;5287251;27;20020;-75
2024/04/18 07:26:07;;;;;;;13.40;7.70;;;;;;;;;;5251049;27;20101;-77
2024/04/18 07:28:32;;;;;;;13.77;7.13;;;;;;;;;;5235251;27;20561;-75
2024/04/18 07:30:58;;;;;;;15.23;7.40;;;;;;;;;;5268594;27;19998;-77
2024/04/18 07:33:24;;;;;;;15.67;7.03;;;;;;;;;;5274428;27;20016;-76
2024/04/18 07:35:58;;;;;;;12.75;6.63;;;;;;;;;;5281657;27;20006;-76
2024/04/18 07:38:23;;;;;;;12.45;6.53;;;;;;;;;;5252889;27;19999;-76
2024/04/18 07:40:50;;;;;;;10.87;7.70;;;;;;;;;;5283390;27;20134;-75
2024/04/18 07:43:15;;;;;;;12.45;7.38;;;;;;;;;;5265269;27;20043;-76
2024/04/18 07:45:41;;;;;;;11.63;6.70;;;;;;;;;;5289128;27;20755;-76
2024/04/18 07:48:07;;;;;;;15.13;6.57;;;;;;;;;;5248034;27;20470;-77
2024/04/18 07:50:33;;;;;;;10.85;7.60;;;;;;;;;;5221393;27;20029;-75
2024/04/18 07:52:59;;;;;;;11.88;6.72;;;;;;;;;;5242318;27;20013;-77
2024/04/18 07:55:26;;;;;;;11.88;6.57;;;;;;;;;;5244384;27;20538;-76
2024/04/18 07:57:52;;;;;;;9.43;6.28;;;;;;;;;;5268438;27;20073;-75
2024/04/18 08:00:18;;;;;;;9.27;6.40;;;;;;;;;;5263769;27;20006;-75
2024/04/18 08:02:45;;;;;;;15.55;7.28;;;;;;;;;;5209185;27;20007;-79
2024/04/18 08:05:12;;;;;;;10.65;6.00;;;;;;;;;;5235895;27;20089;-75
2024/04/18 08:07:38;;;;;;;9.98;6.30;;;;;;;;;;5236256;27;20053;-75
2024/04/18 08:10:05;;;;;;;11.63;6.07;;;;;;;;;;5245343;27;20017;-75
2024/04/18 08:12:31;;;;;;;16.35;6.18;;;;;;;;;;5233356;27;20101;-76
2024/04/18 08:14:56;;;;;;;7.95;4.63;;;;;;;;;;5227198;27;20010;-77
2024/04/18 08:17:24;;;;;;;8.80;4.65;;;;;;;;;;5235005;27;20031;-74
2024/04/18 08:19:49;;;;;;;8.18;4.57;;;;;;;;;;5269261;27;20006;-79
2024/04/18 08:22:15;;;;;;;8.30;5.10;;;;;;;;;;5260532;27;20003;-79
2024/04/18 08:24:40;;;;;;;6.95;4.68;;;;;;;;;;5234293;27;20434;-77
2024/04/18 08:27:07;;;;;;;6.50;5.00;;;;;;;;;;5266268;27;20046;-76
2024/04/18 08:29:32;;;;;;;10.40;4.80;;;;;;;;;;5216482;27;20001;-74
2024/04/18 08:31:58;;;;;;;7.18;4.63;;;;;;;;;;5257635;27;20481;-76
2024/04/18 08:34:25;;;;;;;8.80;4.43;;;;;;;;;;5240431;27;20370;-81
2024/04/18 08:36:53;;;;;;;5.88;4.13;;;;;;;;;;5240627;27;20002;-77
2024/04/18 08:39:18;;;;;;;10.32;5.07;;;;;;;;;;5236006;27;20061;-75
2024/04/18 08:41:45;;;;;;;5.10;3.97;;;;;;;;;;5267174;27;19998;-76
2024/04/18 08:44:12;;;;;;;5.40;3.47;;;;;;;;;;5235607;27;20013;-78
2024/04/18 08:46:40;;;;;;;5.95;3.60;;;;;;;;;;5241929;27;20002;-77
2024/04/18 08:49:07;;;;;;;6.07;3.72;;;;;;;;;;5243116;27;20133;-76
2024/04/18 08:51:37;;;;;;;6.28;2.85;;;;;;;;;;5238302;27;20065;-76
2024/04/18 08:54:06;;;;;;;8.45;3.20;;;;;;;;;;5232486;27;20076;-79
2024/04/18 08:56:34;;;;;;;5.18;3.22;;;;;;;;;;5234677;27;20013;-74
2024/04/18 08:59:06;;;;;;;3.70;2.85;;;;;;;;;;5230231;27;20017;-74
2024/04/18 09:01:32;;;;;;;;;;;;;;;;;;5229124;27;20084;-73
2024/04/18 09:03:59;;;;;;;5.95;5.07;;;;;;;;;;5238173;27;20002;-79
2024/04/18 09:06:25;;;;;;;8.52;3.22;;;;;;;;;;5233906;27;20001;-76
2024/04/18 09:08:55;;;;;;;8.30;3.72;;;;;;;;;;5259090;27;20010;-78
2024/04/18 09:11:22;;;;;;;10.80;7.60;;;;;;;;;;5261424;27;20013;-77
2024/04/18 09:13:49;;;;;;;4.60;2.85;;;;;;;;;;5260279;27;20002;-76
2024/04/18 09:16:15;;;;;;;4.85;3.15;;;;;;;;;;5258091;27;20047;-77
2024/04/18 09:18:41;;;;;;;4.18;3.42;;;;;;;;;;5226154;27;20026;-75
2024/04/18 09:21:13;;;;;;;5.03;3.33;;;;;;;;;;5230995;27;20002;-77
2024/04/18 09:23:39;;;;;;;7.80;3.85;;;;;;;;;;5254086;27;20002;-78
2024/04/18 09:26:05;;;;;;;4.85;3.08;;;;;;;;;;5259898;27;20002;-76
2024/04/18 09:28:31;;;;;;;5.93;3.22;;;;;;;;;;5226192;27;20011;-77
2024/04/18 09:30:58;;;;;;;4.55;2.92;;;;;;;;;;5227115;27;20020;-75
2024/04/18 09:33:25;;;;;;;3.92;2.88;;;;;;;;;;5253269;27;19999;-76
2024/04/18 09:36:00;;;;;;;10.40;3.15;;;;;;;;;;5232388;27;20058;-77
2024/04/18 09:38:29;;;;;;;3.38;2.50;;;;;;;;;;5231524;27;20088;-77
2024/04/18 09:41:01;;;;;;;11.15;3.15;;;;;;;;;;5231451;27;20039;-75
2024/04/18 09:43:39;;;;;;;6.65;2.72;;;;;;;;;;5258214;27;20006;-78
2024/04/18 09:46:09;;;;;;;4.63;2.88;;;;;;;;;;5257233;27;20002;-77
2024/04/18 09:48:35;;;;;;;7.28;2.90;;;;;;;;;;5235262;27;20017;-74
2024/04/18 09:51:03;;;;;;;4.28;2.47;;;;;;;;;;5253364;27;19999;-75
2024/04/18 09:53:32;;;;;;;12.13;3.35;;;;;;;;;;5225849;27;20017;-76
2024/04/18 09:56:04;;;;;;;4.10;2.40;;;;;;;;;;5226703;27;20755;-76
2024/04/18 09:58:31;;;;;;;8.35;2.53;;;;;;;;;;5252960;27;20010;-77
2024/04/18 10:00:59;;;;;;;3.00;2.63;;;;;;;;;;5261867;27;20025;-75
2024/04/18 10:03:28;;;;;;;5.10;3.17;;;;;;;;;;5255443;27;20070;-77
2024/04/18 10:06:00;;;;;;;8.23;4.00;;;;;;;;;;5259497;27;20423;-75
2024/04/18 10:08:34;;;;;;;4.47;2.70;;;;;;;;;;5228184;27;20521;-77
2024/04/18 10:11:02;;;;;;;5.53;2.70;;;;;;;;;;5239291;27;19998;-79
2024/04/18 10:13:28;;;;;;;4.35;2.60;;;;;;;;;;5252233;27;20565;-79
2024/04/18 10:16:09;;;;;;;7.15;3.17;;;;;;;;;;5271516;27;20439;-76
2024/04/18 10:18:36;;;;;;;5.32;2.42;;;;;;;;;;5281275;27;19999;-76
2024/04/18 10:21:13;;;;;;;4.10;2.58;;;;;;;;;;5285269;27;20001;-76
2024/04/18 10:23:53;;;;;;;4.88;3.22;;;;;;;;;;5256480;27;20537;-77
2024/04/18 10:26:21;;;;;;;3.65;2.92;;;;;;;;;;5283333;27;20092;-75
2024/04/18 10:28:49;;;;;;;4.55;3.03;;;;;;;;;;5256219;27;20050;-75
2024/04/18 10:31:16;;;;;;;4.63;3.17;;;;;;;;;;5245391;27;20009;-74
2024/04/18 10:33:44;;;;;;;4.75;2.92;;;;;;;;;;5271646;27;20162;-75
2024/04/18 10:36:13;;;;;;;3.38;2.55;;;;;;;;;;5215543;27;20002;-75
2024/04/18 10:38:46;;;;;;;6.28;4.03;;;;;;;;;;5243628;27;20002;-75
2024/04/18 10:41:18;;;;;;;5.03;3.00;;;;;;;;;;5243221;27;20480;-78
2024/04/18 10:43:44;;;;;;;;;;;;;;;;;;5242236;27;20017;-78
2024/04/18 10:46:12;;;;;;;2.85;2.58;;;;;;;;;;5257585;27;19945;-73
2024/04/18 10:48:38;;;;;;;4.90;2.85;;;;;;;;;;5212503;27;20065;-77
2024/04/18 10:51:04;;;;;;;3.78;2.05;;;;;;;;;;5269321;27;20014;-78
2024/04/18 10:53:37;;;;;;;6.80;2.60;;;;;;;;;;5269434;27;20002;-77
2024/04/18 10:56:03;;;;;;;3.35;2.25;;;;;;;;;;5236337;27;19998;-76
2024/04/18 10:58:29;;;;;;;3.83;2.45;;;;;;;;;;5236570;27;19999;-74
2024/04/18 11:01:02;;;;;;;5.60;2.55;;;;;;;;;;5233838;27;20354;-73
2024/04/18 11:03:28;;;;;;;5.65;2.30;;;;;;;;;;5227352;27;19998;-75
2024/04/18 11:05:58;;;;;;;4.63;2.13;;;;;;;;;;5227164;27;20006;-76
2024/04/18 11:08:25;;;;;;;3.17;2.22;;;;;;;;;;5263614;27;20038;-77
2024/04/18 11:10:51;;;;;;;4.85;2.58;;;;;;;;;;5235808;27;20443;-76
2024/04/18 11:13:18;;;;;;;2.00;1.90;;;;;;;;;;5264195;27;20006;-75
2024/04/18 11:19:04;;;;;;;2.25;1.70;;;;;;;;;;5163744;27;20070;-76
2024/04/18 11:21:33;;;;;;;5.63;2.40;;;;;;;;;;5139955;27;20642;-79
2024/04/18 11:24:00;;;;;;;2.55;1.98;;;;;;;;;;5164402;27;20006;-79
2024/04/18 11:26:27;;;;;;;2.55;2.17;;;;;;;;;;5158400;27;20004;-80
2024/04/18 11:28:58;;;;;;;5.53;2.28;;;;;;;;;;5193638;27;20003;-77
2024/04/18 11:31:26;;;;;;;2.38;2.03;;;;;;;;;;5240897;27;20003;-76
2024/04/18 11:33:55;;;;;;;2.40;2.17;;;;;;;;;;5205415;27;20010;-77
2024/04/18 11:36:23;;;;;;;3.95;2.60;;;;;;;;;;5261251;27;20883;-75
2024/04/18 11:38:49;;;;;;;3.05;2.25;;;;;;;;;;5208682;27;20003;-79
2024/04/18 11:41:41;;;;;;;5.30;1.90;;;;;;;;;;5265374;27;19999;-78
2024/04/18 11:44:06;;;;;;;3.63;1.77;;;;;;;;;;5268555;27;19998;-77
2024/04/18 11:46:33;;;;;;;7.38;2.25;;;;;;;;;;5230616;27;20644;-75
2024/04/18 11:48:59;;;;;;;5.40;3.20;;;;;;;;;;5234272;27;20021;-79
2024/04/18 11:51:24;;;;;;;3.30;2.25;;;;;;;;;;5258128;27;20010;-79
2024/04/18 11:53:52;;;;;;;5.88;3.67;;;;;;;;;;5235023;27;20427;-75
2024/04/18 11:56:18;;;;;;;4.07;3.13;;;;;;;;;;5261283;27;21957;-76
2024/04/18 11:58:43;;;;;;;6.32;2.42;;;;;;;;;;5264211;27;20010;-77
2024/04/18 12:01:11;;;;;;;3.22;2.25;;;;;;;;;;5232784;27;20706;-76
2024/04/18 12:03:40;;;;;;;3.00;2.28;;;;;;;;;;5230449;27;20015;-77
2024/04/18 12:06:06;;;;;;;1.65;1.55;;;;;;;;;;5229137;27;20442;-75
2024/04/18 12:08:33;;;;;;;2.33;1.70;;;;;;;;;;5232520;27;20015;-79
2024/04/18 12:11:00;;;;;;;2.53;1.73;;;;;;;;;;5235555;27;20010;-75
2024/04/18 12:13:36;;;;;;;2.50;1.42;;;;;;;;;;5236765;27;20014;-78
2024/04/18 12:16:02;;;;;;;3.80;2.22;;;;;;;;;;5232424;27;20018;-77
2024/04/18 12:18:28;;;;;;;4.18;2.55;;;;;;;;;;5236047;27;20843;-78
2024/04/18 12:20:53;;;;;;;5.75;1.58;;;;;;;;;;5263022;27;20018;-76
2024/04/18 12:23:22;;;;;;;3.00;2.13;;;;;;;;;;5231298;27;20003;-78
2024/04/18 12:25:50;;;;;;;3.80;1.48;;;;;;;;;;5229760;27;20022;-77
2024/04/18 12:28:15;;;;;;;4.85;2.00;;;;;;;;;;5263429;27;20054;-75
2024/04/18 12:30:41;;;;;;;3.13;1.95;;;;;;;;;;5237654;27;20006;-78
2024/04/18 12:33:07;;;;;;;7.18;2.47;;;;;;;;;;5262875;27;20042;-76
2024/04/18 12:35:33;;;;;;;2.22;1.80;;;;;;;;;;5236741;27;20010;-78
2024/04/18 12:37:59;;;;;;;1.80;1.60;;;;;;;;;;5267117;27;20020;-78
2024/04/18 12:40:25;;;;;;;4.22;1.38;;;;;;;;;;5237514;27;20720;-75
2024/04/18 12:42:50;;;;;;;1.42;1.25;;;;;;;;;;5261913;27;20454;-77
2024/04/18 12:45:16;;;;;;;1.90;1.10;;;;;;;;;;5233872;27;20796;-78
2024/04/18 12:47:42;;;;;;;2.08;1.20;;;;;;;;;;5231491;27;19998;-78
2024/04/18 12:50:07;;;;;;;2.88;1.77;;;;;;;;;;5261084;27;20017;-78
2024/04/18 12:52:44;;;;;;;2.15;1.20;;;;;;;;;;5266099;27;20014;-77
2024/04/18 12:55:10;;;;;;;3.80;1.35;;;;;;;;;;5243160;27;20002;-76
2024/04/18 12:57:36;;;;;;;3.20;1.60;;;;;;;;;;5234241;27;20054;-75
2024/04/18 13:00:03;;;;;;;2.50;1.20;;;;;;;;;;5232731;27;20002;-78
2024/04/18 13:02:28;;;;;;;6.03;2.03;;;;;;;;;;5266543;27;20013;-78
2024/04/18 13:04:54;;;;;;;2.60;1.40;;;;;;;;;;5241270;27;20006;-78
2024/04/18 13:07:20;;;;;;;5.15;1.42;;;;;;;;;;5230497;27;20022;-79
2024/04/18 13:10:06;;;;;;;3.63;1.50;;;;;;;;;;5264947;27;20002;-81
2024/04/18 13:12:34;;;;;;;2.22;1.55;;;;;;;;;;5261246;27;20006;-77
2024/04/18 13:15:10;;;;;;;1.92;1.33;;;;;;;;;;5267980;27;20013;-80
2024/04/18 13:17:36;;;;;;;1.65;1.55;;;;;;;;;;5262373;27;20006;-78
2024/04/18 13:20:02;;;;;;;5.97;2.28;;;;;;;;;;5266166;27;20012;-77
2024/04/18 13:22:28;;;;;;;6.60;1.77;;;;;;;;;;5234784;27;19994;-77
2024/04/18 13:24:54;;;;;;;5.22;1.45;;;;;;;;;;5207425;27;20017;-76
2024/04/18 13:27:21;;;;;;;2.80;1.20;;;;;;;;;;5230313;27;20690;-78
2024/04/18 13:29:48;;;;;;;2.67;1.20;;;;;;;;;;5253104;27;20010;-79
2024/04/18 13:32:13;;;;;;;3.03;1.10;;;;;;;;;;5237292;27;20002;-77
2024/04/18 13:34:39;;;;;;;2.33;1.30;;;;;;;;;;5235781;27;20002;-78
2024/04/18 13:37:04;;;;;;;4.45;1.30;;;;;;;;;;5233069;27;20077;-79
2024/04/18 13:39:30;;;;;;;6.07;1.33;;;;;;;;;;5235128;27;20002;-78
2024/04/18 13:41:56;;;;;;;3.15;1.15;;;;;;;;;;5257860;27;20010;-78
2024/04/18 13:44:21;;;;;;;3.13;1.20;;;;;;;;;;5261376;27;20014;-79
2024/04/18 13:46:49;;;;;;;2.22;1.40;;;;;;;;;;5230076;27;20018;-79
2024/04/18 13:49:15;;;;;;;4.13;1.40;;;;;;;;;;5233137;27;20014;-77
2024/04/18 13:51:40;;;;;;;5.70;1.80;;;;;;;;;;5224956;27;20006;-76
2024/04/18 13:54:06;;;;;;;1.90;1.20;;;;;;;;;;5235072;27;20115;-76
2024/04/18 13:56:32;;;;;;;1.88;1.77;;;;;;;;;;5260802;27;20021;-78
2024/04/18 13:59:01;;;;;;;1.63;1.20;;;;;;;;;;5235218;27;19999;-77
2024/04/18 14:01:26;;;;;;;3.30;1.83;;;;;;;;;;5233100;27;20013;-77
2024/04/18 14:03:54;;;;;;;4.00;1.17;;;;;;;;;;5263097;27;20030;-80
2024/04/18 14:06:19;;;;;;;1.95;1.27;;;;;;;;;;5231910;27;20006;-78
2024/04/18 14:08:45;;;;;;;2.00;1.10;;;;;;;;;;5240593;27;20014;-79
2024/04/18 14:11:11;;;;;;;1.38;1.05;;;;;;;;;;5241769;27;20043;-77
2024/04/18 14:13:36;;;;;;;0.90;0.77;;;;;;;;;;5271631;27;20054;-77
2024/04/18 14:18:51;;;;;;;5.47;0.82;;;;;;;;;;5266811;27;20017;-77
2024/04/18 14:21:18;;;;;;;2.72;1.10;;;;;;;;;;5237495;27;20015;-76
2024/04/18 14:23:44;;;;;;;2.92;0.98;;;;;;;;;;5237768;27;20006;-76
2024/04/18 14:26:09;;;;;;;2.88;1.00;;;;;;;;;;5260017;27;20407;-78
2024/04/18 14:28:35;;;;;;;2.53;1.10;;;;;;;;;;5267759;27;20122;-78
2024/04/18 14:31:01;;;;;;;1.25;1.00;;;;;;;;;;5252642;27;20009;-79
2024/04/18 14:33:27;;;;;;;2.28;1.20;;;;;;;;;;5269266;27;20502;-79
2024/04/18 14:35:53;;;;;;;1.63;1.10;;;;;;;;;;5273811;27;20002;-78
2024/04/18 14:38:19;;;;;;;1.95;1.10;;;;;;;;;;5241787;27;20002;-79
2024/04/18 14:40:46;;;;;;;1.60;1.05;;;;;;;;;;5273097;27;20067;-78
2024/04/18 14:43:13;;;;;;;1.77;1.30;;;;;;;;;;5273501;27;20046;-77